Time;durP1;ratioP1;P1;durP2;ratioP2;P2;SDS_P1;SDS_P2;PMS_P1;PMS_P2;Temp;Humidity;BMP_temperature;BMP_pressure;BME280_temperature;BME280_humidity;BME280_pressure;Samples;Min_cycle;Max_cycle;Signal;HPM_P1;HPM_P2
2023/07/28 00:01:47;;;;;;;7.13;4.30;;;18.50;99.90;;;;;;5071215;28;20306;-75
2023/07/28 00:04:36;;;;;;;8.02;4.78;;;18.40;99.90;;;;;;5074076;28;20226;-75
2023/07/28 00:07:27;;;;;;;6.88;4.28;;;18.50;99.90;;;;;;5072596;28;20799;-76
2023/07/28 00:10:16;;;;;;;4.90;4.05;;;18.50;99.90;;;;;;5068333;28;20261;-75
2023/07/28 00:13:14;;;;;;;4.97;4.25;;;18.50;99.90;;;;;;5073063;28;21227;-75
2023/07/28 00:16:04;;;;;;;9.32;4.35;;;18.50;99.90;;;;;;5074961;28;20311;-74
2023/07/28 00:18:53;;;;;;;6.07;4.10;;;18.50;99.90;;;;;;5061206;28;20247;-74
2023/07/28 00:21:42;;;;;;;5.82;4.03;;;18.50;99.90;;;;;;5060320;28;20224;-75
2023/07/28 00:24:31;;;;;;;5.55;4.15;;;18.50;99.90;;;;;;5061631;28;20239;-74
2023/07/28 00:27:19;;;;;;;6.68;4.03;;;18.40;99.90;;;;;;5077536;28;20228;-74
2023/07/28 00:30:10;;;;;;;6.22;4.35;;;18.40;99.90;;;;;;5079169;28;20219;-75
2023/07/28 00:33:01;;;;;;;5.00;3.88;;;18.30;99.90;;;;;;5087355;28;20308;-74
2023/07/28 00:35:51;;;;;;;5.65;3.95;;;18.40;99.90;;;;;;5067162;28;20253;-74
2023/07/28 00:38:40;;;;;;;6.35;4.10;;;18.40;99.90;;;;;;5073357;28;20227;-73
2023/07/28 00:41:29;;;;;;;5.25;3.38;;;18.30;99.90;;;;;;5061470;28;20309;-74
2023/07/28 00:44:18;;;;;;;5.90;3.83;;;18.40;99.90;;;;;;5075943;28;20276;-73
2023/07/28 00:47:07;;;;;;;4.70;3.58;;;18.40;99.90;;;;;;5080525;28;20239;-73
2023/07/28 00:49:57;;;;;;;6.20;4.00;;;18.50;99.90;;;;;;5078631;28;20227;-72
2023/07/28 00:52:46;;;;;;;5.43;3.70;;;18.50;99.90;;;;;;5059289;28;20246;-72
2023/07/28 00:55:35;;;;;;;6.18;4.45;;;18.60;99.90;;;;;;5068299;28;20287;-72
2023/07/28 00:58:24;;;;;;;5.82;3.85;;;18.50;99.90;;;;;;5082643;28;20243;-75
2023/07/28 01:01:13;;;;;;;7.75;4.18;;;18.50;99.90;;;;;;5063662;28;20250;-74
2023/07/28 01:04:02;;;;;;;8.20;4.53;;;18.30;99.90;;;;;;5063303;28;20223;-74
2023/07/28 01:07:05;;;;;;;8.00;4.90;;;18.30;99.90;;;;;;5061977;28;20334;-74
2023/07/28 01:10:01;;;;;;;7.97;4.63;;;18.20;99.90;;;;;;5064815;28;20235;-74
2023/07/28 01:12:50;;;;;;;7.07;4.32;;;18.20;99.90;;;;;;5085042;28;20621;-73
2023/07/28 01:15:40;;;;;;;5.88;4.57;;;18.30;99.90;;;;;;5079403;28;20223;-74
2023/07/28 01:18:32;;;;;;;7.05;4.45;;;18.40;99.90;;;;;;5072258;28;20657;-73
2023/07/28 01:21:26;;;;;;;5.65;4.40;;;18.20;99.90;;;;;;5079456;28;20227;-73
2023/07/28 01:24:22;;;;;;;5.50;4.60;;;18.20;99.90;;;;;;5065403;28;20231;-73
2023/07/28 01:27:13;;;;;;;5.97;4.72;;;18.20;99.90;;;;;;5080688;28;20230;-74
2023/07/28 01:30:02;;;;;;;6.05;5.00;;;18.10;99.90;;;;;;5063775;28;20311;-74
2023/07/28 01:32:51;;;;;;;7.05;4.85;;;17.90;99.90;;;;;;5071800;28;20235;-74
2023/07/28 01:35:40;;;;;;;9.63;4.80;;;17.90;99.90;;;;;;5079481;28;20220;-74
2023/07/28 01:38:29;;;;;;;7.15;4.78;;;17.90;99.90;;;;;;5063563;28;20227;-74
2023/07/28 01:41:18;;;;;;;10.48;4.95;;;18.00;99.90;;;;;;5064869;28;20222;-75
2023/07/28 01:44:08;;;;;;;7.38;4.78;;;17.90;99.90;;;;;;5065147;28;20653;-74
2023/07/28 01:46:57;;;;;;;6.70;4.50;;;17.70;99.90;;;;;;5076870;28;20273;-73
2023/07/28 01:49:46;;;;;;;7.15;4.85;;;17.80;99.90;;;;;;5076649;28;20309;-72
2023/07/28 01:52:35;;;;;;;5.65;4.65;;;17.80;99.90;;;;;;5082086;28;20361;-73
2023/07/28 01:55:24;;;;;;;6.78;4.50;;;17.70;99.90;;;;;;5061107;28;20227;-73
2023/07/28 01:58:13;;;;;;;8.32;4.90;;;17.70;99.90;;;;;;5068769;28;20227;-72
2023/07/28 02:01:07;;;;;;;9.13;4.40;;;17.60;99.90;;;;;;5077999;28;20227;-73
2023/07/28 02:03:56;;;;;;;9.93;4.70;;;17.60;99.90;;;;;;5066787;28;20230;-73
2023/07/28 02:06:45;;;;;;;7.03;4.95;;;17.60;99.90;;;;;;5074528;28;22388;-73
2023/07/28 02:09:34;;;;;;;6.25;5.03;;;17.70;99.90;;;;;;5082234;28;20219;-73
2023/07/28 02:12:22;;;;;;;6.03;4.80;;;17.70;99.90;;;;;;5070045;28;20857;-73
2023/07/28 02:15:12;;;;;;;6.07;4.60;;;17.70;99.90;;;;;;5069481;28;20216;-74
2023/07/28 02:18:04;;;;;;;7.50;4.72;;;17.70;99.90;;;;;;5072777;28;20728;-73
2023/07/28 02:20:53;;;;;;;6.05;4.20;;;17.60;99.90;;;;;;5075261;28;20720;-73
2023/07/28 02:23:42;;;;;;;6.82;4.47;;;17.70;99.90;;;;;;5060874;28;20216;-74
2023/07/28 02:26:31;;;;;;;7.78;4.35;;;17.70;99.90;;;;;;5071186;28;20262;-74
2023/07/28 02:29:20;;;;;;;9.13;4.88;;;17.70;99.90;;;;;;5070931;28;20363;-74
2023/07/28 02:32:09;;;;;;;7.32;4.60;;;17.70;99.90;;;;;;5073129;28;20219;-74
2023/07/28 02:35:00;;;;;;;7.97;5.05;;;17.80;99.90;;;;;;5084241;28;20269;-74
2023/07/28 02:37:49;;;;;;;5.03;4.32;;;17.80;99.90;;;;;;5061931;28;20295;-72
2023/07/28 02:40:41;;;;;;;7.63;5.00;;;17.70;99.90;;;;;;5066875;28;20320;-73
2023/07/28 02:43:29;;;;;;;10.30;4.82;;;17.70;99.90;;;;;;5068275;28;21058;-72
2023/07/28 02:46:18;;;;;;;8.48;4.75;;;17.60;99.90;;;;;;5058148;28;20861;-72
2023/07/28 02:49:07;;;;;;;7.10;5.07;;;17.60;99.90;;;;;;5080322;28;20302;-73
2023/07/28 02:51:57;;;;;;;6.88;4.70;;;17.70;99.90;;;;;;5061484;28;20329;-72
2023/07/28 02:54:46;;;;;;;7.10;4.50;;;17.70;99.90;;;;;;5075656;28;20226;-72
2023/07/28 02:57:35;;;;;;;6.20;5.15;;;17.60;99.90;;;;;;5071997;28;20257;-74
2023/07/28 03:00:24;;;;;;;8.10;4.43;;;17.50;99.90;;;;;;5046155;28;20253;-74
2023/07/28 03:03:13;;;;;;;6.78;4.40;;;17.50;99.90;;;;;;5040496;28;20337;-74
2023/07/28 03:06:03;;;;;;;7.90;4.43;;;17.50;99.90;;;;;;5042631;28;20377;-73
2023/07/28 03:08:56;;;;;;;6.07;4.50;;;17.50;99.90;;;;;;5064678;28;20217;-73
2023/07/28 03:11:59;;;;;;;5.25;4.65;;;17.60;99.90;;;;;;5044924;28;20709;-73
2023/07/28 03:14:48;;;;;;;6.85;5.20;;;17.70;99.90;;;;;;5047519;28;20311;-72
2023/07/28 03:17:41;;;;;;;7.55;4.88;;;17.80;99.90;;;;;;5064153;28;20235;-73
2023/07/28 03:20:29;;;;;;;7.07;5.10;;;17.70;99.90;;;;;;5040558;28;20220;-71
2023/07/28 03:23:18;;;;;;;7.40;4.85;;;17.70;99.90;;;;;;5060888;28;20726;-72
2023/07/28 03:26:09;;;;;;;7.10;5.20;;;17.60;99.90;;;;;;5050013;28;20236;-73
2023/07/28 03:28:58;;;;;;;7.85;4.57;;;17.50;99.90;;;;;;5057544;28;20652;-73
2023/07/28 03:31:47;;;;;;;12.40;5.18;;;17.50;99.90;;;;;;5039152;28;20742;-72
2023/07/28 03:34:37;;;;;;;8.82;4.93;;;17.50;99.90;;;;;;5043956;28;20218;-73
2023/07/28 03:37:30;;;;;;;10.10;5.25;;;17.60;99.90;;;;;;5046256;28;20976;-73
2023/07/28 03:40:18;;;;;;;7.15;4.68;;;17.60;99.90;;;;;;5044140;28;20244;-73
2023/07/28 03:43:13;;;;;;;7.70;5.80;;;17.70;99.90;;;;;;5048119;28;20270;-73
2023/07/28 03:46:02;;;;;;;7.10;5.40;;;17.60;99.90;;;;;;5050454;28;20716;-72
2023/07/28 03:48:53;;;;;;;6.30;4.85;;;17.60;99.90;;;;;;5040680;28;20212;-71
2023/07/28 03:51:42;;;;;;;7.10;5.30;;;17.50;99.90;;;;;;5040115;28;20276;-73
2023/07/28 03:54:31;;;;;;;4.95;4.38;;;17.60;99.90;;;;;;5050323;28;20239;-73
2023/07/28 03:57:20;;;;;;;5.60;4.72;;;17.60;99.90;;;;;;5063043;28;20240;-73
2023/07/28 04:00:13;;;;;;;7.03;5.05;;;17.50;99.90;;;;;;5049182;28;20243;-73
2023/07/28 04:03:02;;;;;;;5.75;5.00;;;17.60;99.90;;;;;;5062358;28;20224;-73
2023/07/28 04:05:51;;;;;;;7.88;5.13;;;17.70;99.90;;;;;;5043699;28;20296;-74
2023/07/28 04:08:41;;;;;;;6.05;4.93;;;17.60;99.90;;;;;;5069109;28;20223;-73
2023/07/28 04:11:30;;;;;;;6.75;5.10;;;17.70;99.90;;;;;;5056280;28;20220;-73
2023/07/28 04:14:19;;;;;;;7.75;5.00;;;17.60;99.90;;;;;;5058583;28;20232;-73
2023/07/28 04:17:09;;;;;;;9.68;4.82;;;17.60;99.90;;;;;;5068085;28;20306;-73
2023/07/28 04:19:58;;;;;;;8.50;4.88;;;17.70;99.90;;;;;;5065449;28;21254;-73
2023/07/28 04:22:47;;;;;;;6.57;4.80;;;17.60;99.90;;;;;;5062087;28;20227;-73
2023/07/28 04:25:36;;;;;;;9.30;5.03;;;17.90;99.90;;;;;;5069343;28;20923;-73
2023/07/28 04:28:25;;;;;;;6.20;4.72;;;17.80;99.90;;;;;;5046735;28;20232;-73
2023/07/28 04:31:14;;;;;;;9.55;4.93;;;17.90;99.90;;;;;;5047007;28;20216;-73
2023/07/28 04:34:14;;;;;;;7.18;4.50;;;18.00;99.90;;;;;;5063101;28;20307;-76
2023/07/28 04:37:27;;;;;;;7.53;4.82;;;18.00;99.90;;;;;;5045805;28;20223;-76
2023/07/28 04:40:20;;;;;;;5.32;4.07;;;18.00;99.90;;;;;;5062986;28;20331;-76
2023/07/28 04:43:09;;;;;;;7.32;4.50;;;18.00;99.90;;;;;;5064909;28;20239;-76
2023/07/28 04:46:01;;;;;;;7.35;4.28;;;18.00;99.90;;;;;;5047248;28;20274;-76
2023/07/28 04:48:50;;;;;;;6.88;4.35;;;18.00;99.90;;;;;;5054953;28;20587;-74
2023/07/28 04:51:58;;;;;;;5.57;4.43;;;18.00;99.90;;;;;;5056645;28;20228;-74
2023/07/28 04:55:22;;;;;;;4.90;4.20;;;17.90;99.90;;;;;;4999880;28;20226;-75
2023/07/28 04:58:11;;;;;;;6.40;4.60;;;17.90;99.90;;;;;;5056971;28;20216;-74
2023/07/28 05:01:08;;;;;;;5.53;4.40;;;17.90;99.90;;;;;;5055473;28;20216;-74
2023/07/28 05:03:59;;;;;;;6.22;4.53;;;18.10;99.90;;;;;;5044329;28;20258;-73
2023/07/28 05:06:50;;;;;;;6.50;4.40;;;18.10;99.90;;;;;;5041100;28;20240;-73
2023/07/28 05:09:40;;;;;;;5.82;4.55;;;18.10;99.90;;;;;;5047834;28;20220;-74
2023/07/28 05:12:29;;;;;;;5.65;4.25;;;18.20;99.90;;;;;;5050358;28;20269;-74
2023/07/28 05:15:19;;;;;;;4.72;4.20;;;18.20;99.90;;;;;;5048212;28;20227;-75
2023/07/28 05:18:10;;;;;;;7.30;4.53;;;18.20;99.90;;;;;;5045219;28;20342;-75
2023/07/28 05:21:22;;;;;;;8.50;4.43;;;18.20;99.90;;;;;;5053950;28;20770;-75
2023/07/28 05:24:10;;;;;;;8.93;4.72;;;18.20;99.90;;;;;;5045286;28;20226;-74
2023/07/28 05:27:01;;;;;;;6.80;4.30;;;18.20;99.90;;;;;;5046729;28;20220;-74
2023/07/28 05:29:50;;;;;;;15.05;4.63;;;18.20;99.90;;;;;;5035897;28;20243;-74
2023/07/28 05:32:39;;;;;;;6.28;4.93;;;18.20;99.90;;;;;;5038513;28;20277;-75
2023/07/28 05:36:00;;;;;;;8.80;4.55;;;18.20;99.90;;;;;;5047936;28;20250;-75
2023/07/28 05:38:56;;;;;;;8.40;4.78;;;18.30;99.90;;;;;;5056843;28;20216;-72
2023/07/28 05:41:47;;;;;;;6.07;4.32;;;18.40;99.90;;;;;;5038449;28;20357;-74
2023/07/28 05:44:37;;;;;;;5.68;4.40;;;18.50;99.90;;;;;;5053498;28;20715;-74
2023/07/28 05:47:26;;;;;;;6.32;4.18;;;18.50;99.90;;;;;;5047139;28;20228;-76
2023/07/28 05:50:15;;;;;;;7.38;4.20;;;18.50;99.90;;;;;;5055561;28;20228;-73
2023/07/28 05:53:04;;;;;;;6.63;4.20;;;18.60;99.90;;;;;;5052599;28;20213;-76
2023/07/28 05:55:53;;;;;;;6.00;4.18;;;18.60;99.90;;;;;;5050191;28;20409;-74
2023/07/28 05:58:43;;;;;;;6.53;3.83;;;18.60;99.90;;;;;;5051678;28;21059;-73
2023/07/28 06:01:36;;;;;;;9.00;4.07;;;18.50;99.90;;;;;;5057069;28;20227;-73
2023/07/28 06:04:47;;;;;;;6.90;4.20;;;18.60;99.90;;;;;;5059548;28;20220;-72
2023/07/28 06:07:36;;;;;;;7.35;4.10;;;18.70;99.90;;;;;;5052356;28;20262;-71
2023/07/28 06:10:26;;;;;;;5.30;4.30;;;18.70;99.90;;;;;;5042817;28;20226;-72
2023/07/28 06:13:15;;;;;;;8.30;4.20;;;18.80;99.90;;;;;;5059214;28;20373;-69
2023/07/28 06:16:05;;;;;;;5.45;3.70;;;18.80;99.90;;;;;;5038393;28;20241;-68
2023/07/28 06:18:55;;;;;;;7.05;4.13;;;18.80;99.90;;;;;;5051612;28;20834;-69
2023/07/28 06:21:44;;;;;;;7.95;4.07;;;18.90;99.90;;;;;;5045015;28;20801;-69
2023/07/28 06:24:33;;;;;;;8.00;3.88;;;18.90;99.90;;;;;;5054740;28;20261;-68
2023/07/28 06:27:22;;;;;;;6.03;4.05;;;19.00;99.90;;;;;;5042780;28;20225;-72
2023/07/28 06:30:12;;;;;;;8.90;3.80;;;18.90;99.90;;;;;;5038772;28;20829;-74
2023/07/28 06:33:03;;;;;;;5.35;3.70;;;18.90;99.90;;;;;;5046738;28;20712;-72
2023/07/28 06:35:53;;;;;;;5.03;4.00;;;18.90;99.90;;;;;;5052189;28;20315;-73
2023/07/28 06:38:43;;;;;;;8.35;3.95;;;18.90;99.90;;;;;;5054576;28;20215;-71
2023/07/28 06:41:32;;;;;;;6.13;3.70;;;19.00;99.90;;;;;;5031514;28;20445;-72
2023/07/28 06:44:22;;;;;;;16.13;4.50;;;19.10;99.90;;;;;;5053064;28;20225;-72
2023/07/28 06:47:11;;;;;;;8.75;4.20;;;19.10;99.90;;;;;;5057007;28;20361;-71
2023/07/28 06:50:00;;;;;;;9.07;4.00;;;19.10;99.90;;;;;;5055586;28;20216;-72
2023/07/28 06:52:51;;;;;;;4.32;3.92;;;19.10;99.90;;;;;;5037864;28;20226;-72
2023/07/28 06:55:44;;;;;;;5.63;3.80;;;19.00;99.90;;;;;;5052399;28;20631;-72
2023/07/28 06:58:34;;;;;;;5.90;3.75;;;19.10;99.90;;;;;;5066764;28;20227;-71
2023/07/28 07:01:22;;;;;;;7.13;4.18;;;19.10;99.90;;;;;;5060667;28;20227;-71
2023/07/28 07:04:12;;;;;;;5.38;3.78;;;19.20;99.90;;;;;;5067076;28;20219;-72
2023/07/28 07:07:00;;;;;;;6.60;3.90;;;19.00;99.90;;;;;;5056548;28;20235;-70
2023/07/28 07:09:52;;;;;;;6.97;4.28;;;19.00;99.90;;;;;;5069401;28;20235;-71
2023/07/28 07:12:42;;;;;;;7.35;4.53;;;18.80;99.90;;;;;;5068025;28;20231;-71
2023/07/28 07:15:30;;;;;;;8.32;4.05;;;18.60;99.90;;;;;;5060864;28;20224;-72
2023/07/28 07:18:19;;;;;;;8.23;4.82;;;18.30;99.90;;;;;;5065535;28;20640;-72
2023/07/28 07:21:08;;;;;;;9.02;4.50;;;18.30;99.90;;;;;;5066367;28;20224;-71
2023/07/28 07:23:57;;;;;;;7.70;4.90;;;18.10;99.90;;;;;;5070125;28;20262;-71
2023/07/28 07:26:47;;;;;;;6.97;4.57;;;18.00;99.90;;;;;;5076916;28;20219;-70
2023/07/28 07:29:36;;;;;;;8.23;5.50;;;18.00;99.90;;;;;;5065912;28;20231;-71
2023/07/28 07:32:26;;;;;;;7.90;4.57;;;17.90;99.90;;;;;;5078532;28;20235;-69
2023/07/28 07:35:15;;;;;;;7.93;5.05;;;17.90;99.90;;;;;;5074523;28;20215;-71
2023/07/28 07:38:08;;;;;;;7.40;5.60;;;17.70;99.90;;;;;;5063726;28;20245;-71
2023/07/28 07:40:57;;;;;;;8.70;5.53;;;17.70;99.90;;;;;;5071203;28;20226;-72
2023/07/28 07:43:49;;;;;;;8.20;5.45;;;17.60;99.90;;;;;;5071758;28;20223;-71
2023/07/28 07:46:41;;;;;;;9.88;5.07;;;17.60;99.90;;;;;;5053526;28;20223;-71
2023/07/28 07:49:35;;;;;;;9.15;5.05;;;17.70;99.90;;;;;;5056582;28;20629;-72
2023/07/28 07:52:23;;;;;;;8.63;5.35;;;17.60;99.90;;;;;;5076427;28;20231;-71
2023/07/28 07:55:12;;;;;;;13.00;6.70;;;17.70;99.90;;;;;;5060185;28;20227;-70
2023/07/28 07:58:05;;;;;;;6.75;5.15;;;17.70;99.90;;;;;;5053462;28;20987;-70
2023/07/28 08:00:56;;;;;;;8.07;5.35;;;17.80;99.90;;;;;;5045676;28;20220;-71
2023/07/28 08:03:44;;;;;;;7.90;5.25;;;17.80;99.90;;;;;;5057028;28;20223;-71
2023/07/28 08:06:34;;;;;;;7.20;5.32;;;17.70;99.90;;;;;;5046556;28;20220;-72
2023/07/28 08:09:22;;;;;;;6.78;5.30;;;17.90;99.90;;;;;;5063698;28;20963;-73
2023/07/28 08:12:13;;;;;;;6.82;4.93;;;17.90;99.90;;;;;;5036389;28;21350;-72
2023/07/28 08:15:02;;;;;;;7.50;5.18;;;17.90;99.90;;;;;;5053366;28;20220;-71
2023/07/28 08:17:53;;;;;;;7.00;5.20;;;17.80;99.90;;;;;;5045872;28;20702;-71
2023/07/28 08:20:48;;;;;;;6.05;5.38;;;17.80;99.90;;;;;;5037527;28;20236;-72
2023/07/28 08:23:37;;;;;;;8.85;5.35;;;17.80;99.90;;;;;;5064252;28;20296;-70
2023/07/28 08:26:26;;;;;;;7.68;4.95;;;17.90;99.90;;;;;;5060001;28;20224;-71
2023/07/28 08:29:15;;;;;;;9.00;5.32;;;18.00;99.90;;;;;;5056386;28;20229;-70
2023/07/28 08:32:04;;;;;;;8.45;5.30;;;18.00;99.90;;;;;;5059101;28;20290;-71
2023/07/28 08:34:55;;;;;;;6.97;4.85;;;18.00;99.90;;;;;;5053476;28;20236;-72
2023/07/28 08:37:44;;;;;;;7.35;4.97;;;18.10;99.90;;;;;;5050507;28;20216;-73
2023/07/28 08:40:35;;;;;;;7.93;5.50;;;18.00;99.90;;;;;;5059242;28;20239;-71
2023/07/28 08:43:24;;;;;;;6.30;4.90;;;18.30;99.90;;;;;;5053472;28;20223;-70
2023/07/28 08:46:13;;;;;;;9.27;5.30;;;18.60;99.90;;;;;;5057972;28;20336;-70
2023/07/28 08:49:02;;;;;;;8.65;4.95;;;18.60;99.90;;;;;;5052339;28;20231;-71
2023/07/28 08:51:53;;;;;;;7.70;5.38;;;18.80;99.90;;;;;;5059494;28;20225;-72
2023/07/28 08:54:42;;;;;;;6.28;5.10;;;18.70;99.90;;;;;;5057732;28;20754;-74
2023/07/28 08:57:30;;;;;;;8.68;4.75;;;18.70;99.90;;;;;;5074830;28;20216;-74
2023/07/28 09:00:20;;;;;;;5.40;4.80;;;18.60;99.90;;;;;;5054389;28;20238;-74
2023/07/28 09:03:09;;;;;;;11.27;5.43;;;18.60;99.90;;;;;;5063875;28;20483;-75
2023/07/28 09:06:00;;;;;;;7.50;4.95;;;18.70;99.90;;;;;;5066534;28;20227;-74
2023/07/28 09:08:52;;;;;;;7.05;5.05;;;18.70;99.90;;;;;;5060191;28;20421;-74
2023/07/28 09:11:46;;;;;;;6.82;5.10;;;18.80;99.90;;;;;;5059083;28;20229;-72
2023/07/28 09:14:36;;;;;;;7.53;5.53;;;18.80;99.90;;;;;;5057676;28;20663;-72
2023/07/28 09:17:26;;;;;;;8.65;5.60;;;18.90;99.90;;;;;;5048284;28;20603;-73
2023/07/28 09:20:16;;;;;;;9.73;7.28;;;18.70;99.90;;;;;;5067165;28;20390;-77
2023/07/28 09:23:07;;;;;;;9.52;5.82;;;18.80;99.90;;;;;;5074681;28;20224;-83
2023/07/28 09:26:03;;;;;;;10.68;5.70;;;18.80;99.90;;;;;;5062688;28;20227;-77
2023/07/28 09:28:55;;;;;;;9.68;5.22;;;18.80;99.90;;;;;;5046010;28;20229;-76
2023/07/28 09:31:44;;;;;;;14.43;6.75;;;18.90;99.90;;;;;;5059147;28;20637;-75
2023/07/28 09:34:33;;;;;;;8.98;5.18;;;19.20;99.90;;;;;;5058846;28;20221;-75
2023/07/28 09:37:22;;;;;;;9.00;5.65;;;19.20;99.90;;;;;;5059442;28;20220;-75
2023/07/28 09:40:13;;;;;;;8.20;6.07;;;19.40;99.90;;;;;;5049580;28;20315;-75
2023/07/28 09:43:03;;;;;;;8.77;5.90;;;19.20;99.90;;;;;;5043380;28;20718;-74
2023/07/28 09:45:52;;;;;;;6.90;5.50;;;19.10;99.90;;;;;;5060109;28;20248;-73
2023/07/28 09:48:47;;;;;;;7.60;5.40;;;19.10;99.90;;;;;;5061393;28;20849;-76
2023/07/28 09:51:40;;;;;;;8.30;4.90;;;19.20;99.90;;;;;;5054719;28;20353;-75
2023/07/28 09:54:31;;;;;;;11.05;5.68;;;19.20;99.90;;;;;;5046802;28;20216;-70
2023/07/28 09:57:22;;;;;;;6.97;5.35;;;19.10;99.90;;;;;;5054728;28;20260;-71
2023/07/28 10:00:14;;;;;;;8.88;5.13;;;18.90;99.90;;;;;;5075109;28;20312;-72
2023/07/28 10:03:04;;;;;;;6.93;4.93;;;19.00;99.90;;;;;;5078086;28;20219;-73
2023/07/28 10:05:54;;;;;;;10.77;5.40;;;19.00;99.90;;;;;;5076568;28;20237;-72
2023/07/28 10:08:44;;;;;;;7.25;5.13;;;19.00;99.90;;;;;;5075268;28;20228;-72
2023/07/28 10:11:33;;;;;;;8.13;5.30;;;19.10;99.90;;;;;;5061530;28;21034;-72
2023/07/28 10:14:30;;;;;;;9.05;5.15;;;19.10;99.90;;;;;;5076005;28;20220;-72
2023/07/28 10:17:32;;;;;;;5.90;4.80;;;19.40;99.90;;;;;;5079761;28;20242;-72
2023/07/28 10:20:35;;;;;;;8.63;5.30;;;19.40;99.90;;;;;;5064991;28;20227;-73
2023/07/28 10:23:25;;;;;;;7.03;5.13;;;19.40;99.90;;;;;;5079302;28;20227;-72
2023/07/28 10:26:14;;;;;;;7.97;5.25;;;19.40;99.90;;;;;;5083401;28;20230;-72
2023/07/28 10:29:11;;;;;;;7.38;5.38;;;19.30;99.90;;;;;;5079258;28;20615;-71
2023/07/28 10:32:00;;;;;;;6.38;5.47;;;19.50;99.90;;;;;;5077150;28;20230;-71
2023/07/28 10:35:01;;;;;;;8.27;5.55;;;19.50;99.90;;;;;;5072965;28;20236;-73
2023/07/28 10:37:50;;;;;;;7.95;5.82;;;19.60;99.90;;;;;;5086115;28;20275;-72
2023/07/28 10:40:43;;;;;;;5.32;4.75;;;19.50;99.90;;;;;;5084705;28;20701;-73
2023/07/28 10:43:31;;;;;;;10.07;5.35;;;19.60;99.90;;;;;;5080836;28;20260;-72
2023/07/28 10:46:22;;;;;;;7.15;5.20;;;19.60;99.90;;;;;;5078368;28;20247;-71
2023/07/28 10:49:11;;;;;;;6.85;4.97;;;19.50;99.90;;;;;;5077584;28;20318;-71
2023/07/28 10:52:01;;;;;;;6.20;5.45;;;19.70;99.90;;;;;;5073908;28;20722;-73
2023/07/28 10:54:51;;;;;;;8.25;5.47;;;19.90;99.90;;;;;;5075127;28;20215;-72
2023/07/28 10:57:42;;;;;;;8.30;5.00;;;20.40;99.90;;;;;;5077892;28;20738;-72
2023/07/28 11:00:31;;;;;;;7.78;5.15;;;20.50;99.90;;;;;;5074556;28;20223;-72
2023/07/28 11:03:21;;;;;;;6.32;4.65;;;20.50;99.90;;;;;;5075516;28;20766;-73
2023/07/28 11:06:10;;;;;;;10.40;5.32;;;20.50;99.90;;;;;;5065981;28;20360;-73
2023/07/28 11:09:00;;;;;;;8.48;5.20;;;20.30;99.90;;;;;;5063952;28;20219;-72
2023/07/28 11:11:51;;;;;;;9.10;5.45;;;20.20;99.90;;;;;;5079709;28;20699;-73
2023/07/28 11:14:41;;;;;;;6.20;5.13;;;20.10;99.90;;;;;;5061498;28;20235;-73
2023/07/28 11:17:30;;;;;;;9.50;5.10;;;20.00;99.90;;;;;;5077848;28;20215;-73
2023/07/28 11:20:21;;;;;;;7.28;5.03;;;20.10;99.90;;;;;;5064365;28;20234;-73
2023/07/28 11:23:09;;;;;;;7.55;5.30;;;20.00;99.90;;;;;;5076047;28;20227;-73
2023/07/28 11:26:00;;;;;;;6.85;5.30;;;20.10;99.90;;;;;;5071277;28;20220;-73
2023/07/28 11:28:50;;;;;;;8.05;4.75;;;20.30;99.90;;;;;;5078482;28;20294;-73
2023/07/28 11:31:43;;;;;;;6.63;5.15;;;21.90;99.90;;;;;;5078922;28;20223;-74
2023/07/28 11:34:36;;;;;;;4.80;4.03;;;23.40;99.90;;;;;;5080716;28;20246;-73
2023/07/28 11:37:26;;;;;;;7.78;4.35;;;27.20;99.90;;;;;;5064625;28;20227;-73
2023/07/28 11:40:18;;;;;;;4.30;3.22;;;26.50;99.90;;;;;;5066702;28;20301;-74
2023/07/28 11:43:08;;;;;;;2.65;2.45;;;26.20;99.90;;;;;;5083562;28;20231;-73
2023/07/28 11:45:57;;;;;;;2.67;2.30;;;24.50;99.90;;;;;;5078093;28;20369;-74
2023/07/28 11:48:46;;;;;;;3.25;1.92;;;23.90;99.90;;;;;;5083828;28;20598;-74
2023/07/28 11:51:43;;;;;;;4.70;1.90;;;25.90;99.90;;;;;;5076840;28;20550;-74
2023/07/28 11:54:32;;;;;;;2.35;1.75;;;29.00;99.90;;;;;;5073666;28;20220;-74
2023/07/28 11:57:22;;;;;;;1.73;1.55;;;27.80;99.90;;;;;;5063623;28;20219;-73
2023/07/28 12:00:39;;;;;;;1.88;1.63;;;28.70;99.90;;;;;;5055550;28;20232;-74
2023/07/28 12:03:31;;;;;;;2.42;1.52;;;27.00;99.90;;;;;;5067743;28;20231;-74
2023/07/28 12:06:20;;;;;;;2.38;1.77;;;26.70;99.90;;;;;;5069657;28;20358;-74
2023/07/28 12:09:17;;;;;;;1.65;1.38;;;26.70;99.90;;;;;;5086499;28;20252;-75
2023/07/28 12:12:06;;;;;;;1.55;1.45;;;29.60;99.90;;;;;;5080188;28;20678;-74
2023/07/28 12:14:58;;;;;;;1.60;1.45;;;26.60;99.90;;;;;;5082660;28;20231;-74
2023/07/28 12:18:11;;;;;;;2.47;1.58;;;27.00;99.90;;;;;;5084763;28;20222;-74
2023/07/28 12:21:03;;;;;;;1.65;1.40;;;26.50;99.90;;;;;;5074772;28;20223;-73
2023/07/28 12:23:52;;;;;;;1.77;1.48;;;26.90;99.90;;;;;;5085399;28;20698;-73
2023/07/28 12:26:43;;;;;;;2.95;1.60;;;30.10;99.90;;;;;;5067559;28;20590;-72
2023/07/28 12:29:32;;;;;;;2.58;1.60;;;29.30;99.90;;;;;;5074478;28;20256;-72
2023/07/28 12:32:22;;;;;;;1.73;1.50;;;27.80;99.90;;;;;;5075027;28;20315;-73
2023/07/28 12:35:24;;;;;;;2.25;1.50;;;28.20;99.90;;;;;;5074289;28;20233;-73
2023/07/28 12:38:32;;;;;;;2.53;1.40;;;26.90;99.90;;;;;;5060702;28;20280;-73
2023/07/28 12:41:24;;;;;;;3.38;1.63;;;25.70;99.90;;;;;;5071970;28;20243;-73
2023/07/28 12:44:29;;;;;;;1.92;1.60;;;24.80;99.90;;;;;;5083446;28;20234;-74
2023/07/28 12:47:21;;;;;;;1.95;1.50;;;24.20;99.90;;;;;;5081553;28;20231;-74
2023/07/28 12:50:11;;;;;;;2.45;1.67;;;23.80;99.90;;;;;;5084154;28;20693;-72
2023/07/28 12:53:04;;;;;;;3.28;1.80;;;23.60;99.90;;;;;;5065817;28;20224;-72
2023/07/28 12:56:03;;;;;;;3.53;1.92;;;23.20;99.90;;;;;;5080084;28;20484;-74
2023/07/28 12:58:52;;;;;;;1.75;1.52;;;23.10;99.90;;;;;;5076216;28;20242;-72
2023/07/28 13:01:44;;;;;;;3.17;1.77;;;23.00;99.90;;;;;;5079669;28;20216;-72
2023/07/28 13:04:33;;;;;;;7.60;1.90;;;23.00;99.90;;;;;;5069709;28;20341;-72
2023/07/28 13:07:23;;;;;;;3.72;1.80;;;23.00;99.90;;;;;;5083260;28;20702;-72
2023/07/28 13:10:16;;;;;;;2.40;1.60;;;22.90;99.90;;;;;;5081697;28;20687;-73
2023/07/28 13:13:07;;;;;;;2.10;1.55;;;22.40;99.90;;;;;;5079560;28;20219;-73
2023/07/28 13:15:59;;;;;;;2.38;1.40;;;22.30;99.90;;;;;;5068860;28;20224;-72
2023/07/28 13:18:49;;;;;;;1.50;1.20;;;22.20;99.90;;;;;;5075662;28;20219;-72
2023/07/28 13:21:37;;;;;;;2.92;1.70;;;22.10;99.90;;;;;;5080116;28;20610;-72
2023/07/28 13:24:27;;;;;;;2.22;1.70;;;21.90;99.90;;;;;;5066257;28;20242;-72
2023/07/28 13:27:17;;;;;;;2.10;1.30;;;22.00;99.90;;;;;;5085161;28;20246;-73
2023/07/28 13:30:07;;;;;;;1.83;1.27;;;21.80;99.90;;;;;;5065525;28;20224;-72
2023/07/28 13:32:56;;;;;;;2.88;1.35;;;21.80;99.90;;;;;;5082553;28;20223;-72
2023/07/28 13:35:45;;;;;;;2.85;2.10;;;21.80;99.90;;;;;;5080900;28;20238;-74
2023/07/28 13:38:34;;;;;;;2.80;2.03;;;21.90;99.90;;;;;;5079171;28;20691;-72
2023/07/28 13:41:23;;;;;;;2.30;1.40;;;21.90;99.90;;;;;;5075418;28;20643;-75
2023/07/28 13:44:13;;;;;;;4.95;2.28;;;21.90;99.90;;;;;;5074486;28;20228;-74
2023/07/28 13:47:03;;;;;;;3.45;2.20;;;22.30;99.90;;;;;;5078429;28;20261;-72
2023/07/28 13:49:53;;;;;;;2.70;1.08;;;22.50;99.90;;;;;;5064226;28;20254;-74
2023/07/28 13:52:43;;;;;;;1.77;1.35;;;22.40;99.90;;;;;;5063710;28;20220;-73
2023/07/28 13:55:32;;;;;;;1.67;1.40;;;22.20;99.90;;;;;;5070565;28;20978;-74
2023/07/28 13:58:24;;;;;;;3.38;1.50;;;22.20;99.90;;;;;;5060180;28;20263;-74
2023/07/28 14:01:15;;;;;;;3.50;1.90;;;22.40;99.90;;;;;;5074946;28;20262;-74
2023/07/28 14:04:04;;;;;;;3.30;3.00;;;22.60;99.90;;;;;;5064905;28;20264;-75
2023/07/28 14:06:53;;;;;;;3.40;1.42;;;22.90;99.90;;;;;;5074770;28;20302;-74
2023/07/28 14:09:42;;;;;;;2.25;1.33;;;22.80;99.90;;;;;;5079719;28;20478;-74
2023/07/28 14:12:30;;;;;;;6.47;4.82;;;22.60;99.90;;;;;;5077100;28;20278;-74
2023/07/28 14:15:20;;;;;;;2.15;1.70;;;22.50;99.90;;;;;;5071837;28;20690;-74
2023/07/28 14:18:10;;;;;;;2.13;1.92;;;22.40;99.90;;;;;;5060816;28;20231;-74
2023/07/28 14:20:59;;;;;;;2.63;2.20;;;22.30;99.90;;;;;;5076308;28;20216;-74
2023/07/28 14:23:48;;;;;;;2.92;1.67;;;22.20;99.90;;;;;;5070425;28;20216;-74
2023/07/28 14:26:36;;;;;;;4.43;1.60;;;22.20;99.90;;;;;;5073842;28;20231;-74
2023/07/28 14:29:27;;;;;;;3.53;1.25;;;22.20;99.90;;;;;;5057973;28;20304;-76
2023/07/28 14:32:16;;;;;;;2.25;1.60;;;22.00;99.90;;;;;;5080103;28;20228;-75
2023/07/28 14:35:07;;;;;;;4.10;2.20;;;22.10;99.90;;;;;;5076297;28;20224;-76
2023/07/28 14:37:57;;;;;;;2.63;1.67;;;22.10;99.90;;;;;;5073989;28;20693;-75
2023/07/28 14:40:50;;;;;;;4.07;1.90;;;22.10;99.90;;;;;;5056232;28;20216;-76
2023/07/28 14:43:39;;;;;;;2.20;1.98;;;22.10;99.90;;;;;;5058146;28;20228;-76
2023/07/28 14:46:28;;;;;;;2.20;1.40;;;22.10;99.90;;;;;;5075182;28;20231;-76
2023/07/28 14:49:17;;;;;;;2.10;1.60;;;22.00;99.90;;;;;;5053783;28;20224;-76